createdAt,value
2022-08-07T00:02:40.016Z,17.16
2022-08-07T00:05:23.614Z,17.07
2022-08-07T00:07:59.977Z,16.99
2022-08-07T00:10:48.007Z,16.93
2022-08-07T00:13:34.877Z,16.85
2022-08-07T00:16:17.383Z,16.91
2022-08-07T00:18:55.769Z,16.73
2022-08-07T00:21:57.335Z,16.66
2022-08-07T00:24:24.567Z,16.60
2022-08-07T00:27:06.548Z,16.57
2022-08-07T00:29:41.530Z,16.53
2022-08-07T00:32:15.876Z,16.50
2022-08-07T00:34:50.689Z,16.45
2022-08-07T00:37:25.232Z,16.42
2022-08-07T00:40:05.118Z,16.38
2022-08-07T00:42:45.326Z,16.34
2022-08-07T00:45:24.155Z,16.30
2022-08-07T00:48:08.692Z,16.26
2022-08-07T00:50:51.034Z,16.21
2022-08-07T00:53:39.416Z,16.16
2022-08-07T00:56:30.155Z,16.11
2022-08-07T00:59:05.944Z,16.07
2022-08-07T01:01:44.166Z,16.02
2022-08-07T01:04:24.905Z,15.99
2022-08-07T01:06:59.093Z,15.96
2022-08-07T01:09:51.139Z,15.94
2022-08-07T01:12:31.635Z,15.94
2022-08-07T01:15:17.686Z,15.95
2022-08-07T01:17:51.785Z,15.96
2022-08-07T01:20:32.395Z,16.07
2022-08-07T01:23:12.231Z,16.02
2022-08-07T01:25:55.671Z,16.06
2022-08-07T01:28:31.034Z,16.11
2022-08-07T01:31:07.347Z,16.14
2022-08-07T01:33:55.383Z,16.15
2022-08-07T01:36:40.357Z,16.15
2022-08-07T01:39:25.265Z,16.11
2022-08-07T01:42:38.077Z,16.06
2022-08-07T01:45:18.266Z,16.03
2022-08-07T01:48:20.386Z,15.99
2022-08-07T01:50:58.926Z,15.92
2022-08-07T01:54:12.063Z,15.84
2022-08-07T01:56:35.656Z,15.76
2022-08-07T01:59:18.952Z,15.69
2022-08-07T02:02:04.090Z,15.63
2022-08-07T02:04:56.335Z,15.56
2022-08-07T02:07:50.023Z,15.51
2022-08-07T02:10:31.910Z,15.44
2022-08-07T02:13:08.940Z,15.37
2022-08-07T02:15:55.279Z,15.32
2022-08-07T02:18:31.261Z,15.25
2022-08-07T02:21:08.797Z,15.21
2022-08-07T02:23:51.149Z,15.14
2022-08-07T02:26:26.808Z,15.10
2022-08-07T02:29:13.722Z,15.07
2022-08-07T02:31:50.163Z,15.03
2022-08-07T02:34:28.146Z,14.99
2022-08-07T02:37:08.831Z,14.96
2022-08-07T02:40:02.538Z,14.93
2022-08-07T02:42:44.295Z,14.90
2022-08-07T02:45:58.361Z,14.86
2022-08-07T02:48:15.608Z,14.84
2022-08-07T02:50:55.742Z,14.81
2022-08-07T02:53:38.951Z,14.78
2022-08-07T02:56:21.712Z,14.77
2022-08-07T02:58:57.268Z,14.73
2022-08-07T03:01:40.072Z,14.69
2022-08-07T03:04:22.490Z,14.65
2022-08-07T03:06:58.310Z,14.61
2022-08-07T03:09:41.870Z,14.60
2022-08-07T03:12:22.670Z,14.55
2022-08-07T03:15:12.097Z,14.52
2022-08-07T03:17:53.335Z,14.48
2022-08-07T03:20:29.408Z,14.44
2022-08-07T03:23:04.587Z,14.42
2022-08-07T03:25:59.828Z,14.39
2022-08-07T03:28:39.720Z,14.37
2022-08-07T03:31:24.846Z,14.34
2022-08-07T03:34:07.506Z,14.29
2022-08-07T03:36:42.382Z,14.27
2022-08-07T03:39:58.969Z,14.24
2022-08-07T03:42:15.660Z,14.21
2022-08-07T03:44:53.426Z,14.20
2022-08-07T03:47:48.007Z,14.23
2022-08-07T03:50:28.705Z,14.23
2022-08-07T03:53:05.271Z,14.23
2022-08-07T03:55:58.254Z,14.24
2022-08-07T03:59:08.705Z,14.27
2022-08-07T04:01:36.931Z,14.30
2022-08-07T04:04:11.480Z,14.34
2022-08-07T04:06:53.513Z,14.38
2022-08-07T04:09:44.594Z,14.40
2022-08-07T04:12:26.776Z,14.43
2022-08-07T04:15:04.971Z,14.49
2022-08-07T04:18:11.253Z,14.54
2022-08-07T04:20:38.538Z,14.61
2022-08-07T04:23:43.410Z,14.68
2022-08-07T04:26:25.094Z,14.75
2022-08-07T04:29:03.349Z,14.82
2022-08-07T04:32:03.000Z,14.87
2022-08-07T04:34:33.939Z,14.94
2022-08-07T04:37:15.276Z,15.02
2022-08-07T04:39:56.790Z,15.12
2022-08-07T04:42:34.669Z,15.19
2022-08-07T04:45:13.850Z,15.29
2022-08-07T04:48:06.146Z,15.42
2022-08-07T04:50:52.848Z,15.52
2022-08-07T04:54:00.933Z,15.65
2022-08-07T04:58:23.549Z,15.74
2022-08-07T05:00:12.780Z,15.83
2022-08-07T05:02:42.824Z,15.88
2022-08-07T05:05:52.101Z,15.96
2022-08-07T05:09:00.097Z,16.06
2022-08-07T05:11:26.175Z,16.21
2022-08-07T05:14:53.263Z,16.31
2022-08-07T05:17:05.972Z,16.44
2022-08-07T05:19:53.009Z,16.56
2022-08-07T05:22:28.204Z,16.67
2022-08-07T05:25:08.625Z,16.80
2022-08-07T05:28:02.769Z,16.96
2022-08-07T05:30:44.718Z,17.11
2022-08-07T05:33:23.109Z,17.24
2022-08-07T05:35:58.292Z,17.38
2022-08-07T05:38:58.424Z,17.51
2022-08-07T05:42:02.473Z,17.68
2022-08-07T05:44:31.100Z,17.83
2022-08-07T05:47:18.137Z,17.95
2022-08-07T05:49:57.273Z,18.02
2022-08-07T05:52:34.228Z,18.07
2022-08-07T05:55:11.340Z,18.13
2022-08-07T05:57:50.732Z,18.24
2022-08-07T06:00:25.966Z,18.31
2022-08-07T06:03:10.708Z,18.41
2022-08-07T06:05:49.137Z,18.55
2022-08-07T06:08:31.557Z,18.70
2022-08-07T06:11:06.506Z,18.82
2022-08-07T06:14:13.139Z,18.94
2022-08-07T06:16:40.024Z,19.05
2022-08-07T06:19:17.942Z,19.18
2022-08-07T06:22:15.515Z,19.34
2022-08-07T06:25:01.508Z,19.42
2022-08-07T06:28:00.702Z,19.52
2022-08-07T06:30:35.789Z,19.68
2022-08-07T06:33:16.930Z,19.80
2022-08-07T06:36:13.351Z,19.94
2022-08-07T06:38:59.122Z,20.11
2022-08-07T06:42:02.477Z,20.29
2022-08-07T06:45:15.469Z,20.50
2022-08-07T06:47:59.848Z,20.64
2022-08-07T06:50:47.584Z,20.80
2022-08-07T06:54:11.630Z,20.94
2022-08-07T06:56:49.813Z,21.09
2022-08-07T07:00:13.789Z,21.30
2022-08-07T07:02:54.426Z,21.49
2022-08-07T07:06:03.615Z,21.67
2022-08-07T07:08:25.688Z,21.84
2022-08-07T07:11:02.792Z,22.03
2022-08-07T07:13:58.075Z,22.23
2022-08-07T07:16:49.508Z,22.35
2022-08-07T07:19:56.920Z,22.45
2022-08-07T07:22:36.771Z,22.62
2022-08-07T07:26:34.831Z,22.83
2022-08-07T07:28:42.656Z,22.98
2022-08-07T07:31:21.574Z,23.11
2022-08-07T07:34:00.467Z,23.23
2022-08-07T07:36:36.054Z,23.21
2022-08-07T07:39:17.639Z,23.23
2022-08-07T07:42:08.789Z,23.17
2022-08-07T07:44:49.553Z,23.05
2022-08-07T07:47:26.215Z,22.88
2022-08-07T07:50:36.254Z,22.76
2022-08-07T07:52:58.464Z,22.84
2022-08-07T07:55:37.820Z,23.05
2022-08-07T07:58:21.226Z,23.38
2022-08-07T08:00:59.089Z,23.67
2022-08-07T08:04:11.053Z,23.83
2022-08-07T08:06:31.851Z,24.20
2022-08-07T08:09:09.731Z,24.56
2022-08-07T08:12:02.577Z,24.94
2022-08-07T08:14:38.605Z,24.83
2022-08-07T08:17:57.846Z,24.36
2022-08-07T08:20:16.944Z,23.83
2022-08-07T08:23:15.079Z,23.58
2022-08-07T08:26:08.119Z,23.63
2022-08-07T08:28:45.602Z,23.73
2022-08-07T08:31:30.221Z,23.88
2022-08-07T08:34:27.210Z,24.04
2022-08-07T08:37:09.975Z,24.18
2022-08-07T08:40:01.162Z,24.59
2022-08-07T08:42:44.915Z,25.23
2022-08-07T08:45:26.689Z,26.26
2022-08-07T08:48:28.362Z,27.49
2022-08-07T08:51:29.559Z,28.49
2022-08-07T08:54:26.546Z,29.34
2022-08-07T08:57:05.263Z,29.92
2022-08-07T08:59:50.315Z,30.42
2022-08-07T09:02:36.616Z,30.83
2022-08-07T09:05:36.773Z,31.20
2022-08-07T09:08:28.779Z,32.09
2022-08-07T09:11:13.849Z,32.53
2022-08-07T09:14:09.586Z,32.21
2022-08-07T09:17:03.684Z,32.81
2022-08-07T09:19:57.740Z,31.15
2022-08-07T09:24:31.521Z,30.98
2022-08-07T09:26:10.192Z,31.85
2022-08-07T09:30:05.008Z,32.32
2022-08-07T09:31:53.364Z,32.12
2022-08-07T09:34:39.329Z,31.83
2022-08-07T09:37:48.594Z,30.84
2022-08-07T09:40:35.203Z,31.75
2022-08-07T09:43:24.494Z,30.74
2022-08-07T09:47:50.042Z,31.74
2022-08-07T09:50:01.875Z,30.17
2022-08-07T09:52:41.109Z,29.15
2022-08-07T09:55:29.766Z,30.23
2022-08-07T09:58:38.664Z,30.06
2022-08-07T10:01:53.044Z,31.53
2022-08-07T10:04:53.207Z,32.87
2022-08-07T10:07:53.576Z,33.66
2022-08-07T10:14:02.324Z,33.82
2022-08-07T10:16:49.575Z,33.70
2022-08-07T10:19:48.556Z,33.60
2022-08-07T10:22:38.713Z,31.77
2022-08-07T10:25:33.049Z,30.01
2022-08-07T10:28:49.502Z,28.40
2022-08-07T10:31:49.803Z,27.02
2022-08-07T10:34:45.844Z,26.76
2022-08-07T10:38:00.341Z,28.27
2022-08-07T10:40:38.911Z,29.86
2022-08-07T10:43:29.744Z,30.86
2022-08-07T10:46:16.979Z,31.59
2022-08-07T10:49:10.402Z,32.01
2022-08-07T10:52:12.671Z,32.34
2022-08-07T10:55:01.630Z,32.49
2022-08-07T10:57:59.001Z,32.47
2022-08-07T11:00:56.247Z,32.28
2022-08-07T11:03:52.714Z,31.69
2022-08-07T11:06:42.071Z,30.46
2022-08-07T11:10:09.433Z,29.41
2022-08-07T11:12:31.446Z,28.33
2022-08-07T11:15:17.294Z,27.57
2022-08-07T11:18:03.456Z,27.38
2022-08-07T11:20:48.534Z,27.26
2022-08-07T11:23:38.700Z,27.06
2022-08-07T11:26:27.059Z,26.83
2022-08-07T11:29:13.145Z,26.79
2022-08-07T11:32:07.247Z,26.65
2022-08-07T11:34:47.835Z,26.45
2022-08-07T11:37:38.693Z,26.21
2022-08-07T11:40:41.063Z,25.87
2022-08-07T11:43:41.759Z,25.72
2022-08-07T11:46:36.728Z,25.69
2022-08-07T11:49:50.457Z,25.51
2022-08-07T11:52:35.697Z,25.36
2022-08-07T11:56:09.494Z,25.30
2022-08-07T11:58:33.421Z,25.22
2022-08-07T12:01:22.882Z,25.06
2022-08-07T12:04:17.472Z,24.87
2022-08-07T12:07:00.729Z,24.83
2022-08-07T12:09:50.185Z,24.80
2022-08-07T12:12:29.143Z,24.70
2022-08-07T12:15:17.248Z,24.64
2022-08-07T12:18:11.826Z,24.46
2022-08-07T12:20:54.031Z,24.37
2022-08-07T12:24:05.369Z,24.27
2022-08-07T12:26:46.915Z,24.33
2022-08-07T12:29:38.203Z,24.32
2022-08-07T12:32:20.834Z,24.26
2022-08-07T12:34:56.527Z,24.25
2022-08-07T12:38:09.542Z,24.32
2022-08-07T12:40:47.297Z,24.38
2022-08-07T12:44:01.563Z,24.42
2022-08-07T12:46:32.691Z,24.43
2022-08-07T12:49:40.149Z,24.44
2022-08-07T12:52:17.998Z,24.46
2022-08-07T12:55:03.728Z,24.52
2022-08-07T12:58:01.141Z,24.57
2022-08-07T13:00:50.054Z,24.69
2022-08-07T13:04:03.149Z,24.86
2022-08-07T13:06:54.401Z,24.97
2022-08-07T13:10:29.202Z,24.97
2022-08-07T13:13:05.120Z,25.00
2022-08-07T13:15:48.833Z,24.96
2022-08-07T13:18:38.149Z,24.83
2022-08-07T13:21:37.279Z,24.63
2022-08-07T13:24:21.109Z,24.37
2022-08-07T13:27:08.517Z,24.18
2022-08-07T13:29:50.972Z,24.06
2022-08-07T13:32:37.628Z,23.90
2022-08-07T13:35:24.904Z,23.91
2022-08-07T13:38:23.590Z,23.98
2022-08-07T13:41:06.246Z,24.05
2022-08-07T13:43:44.987Z,24.10
2022-08-07T13:46:33.839Z,24.14
2022-08-07T13:50:32.601Z,24.15
2022-08-07T13:52:30.749Z,24.16
2022-08-07T13:55:08.359Z,24.15
2022-08-07T13:58:01.871Z,24.11
2022-08-07T14:00:50.621Z,24.11
2022-08-07T14:04:09.575Z,24.14
2022-08-07T14:06:35.060Z,24.19
2022-08-07T14:09:16.888Z,24.16
2022-08-07T14:12:10.414Z,24.16
2022-08-07T14:14:52.805Z,24.02
2022-08-07T14:18:12.900Z,23.86
2022-08-07T14:20:41.017Z,23.72
2022-08-07T14:23:58.965Z,23.64
2022-08-07T14:26:28.106Z,23.62
2022-08-07T14:30:05.354Z,23.64
2022-08-07T14:32:08.084Z,23.64
2022-08-07T14:34:45.975Z,23.61
2022-08-07T14:37:36.458Z,23.60
2022-08-07T14:40:26.064Z,23.59
2022-08-07T14:43:58.429Z,23.57
2022-08-07T14:46:00.713Z,23.56
2022-08-07T14:48:42.946Z,23.54
2022-08-07T14:51:23.794Z,23.60
2022-08-07T14:56:55.845Z,23.68
2022-08-07T15:00:03.641Z,23.69
2022-08-07T15:02:34.278Z,23.65
2022-08-07T15:05:20.363Z,23.63
2022-08-07T15:07:57.064Z,23.61
2022-08-07T15:10:32.971Z,23.53
2022-08-07T15:13:13.763Z,23.48
2022-08-07T15:18:48.065Z,23.31
2022-08-07T15:21:58.595Z,23.16
2022-08-07T15:27:23.817Z,23.02
2022-08-07T15:30:16.163Z,23.03
2022-08-07T15:33:03.967Z,23.01
2022-08-07T15:36:04.777Z,22.99
2022-08-07T15:38:51.399Z,22.93
2022-08-07T15:42:45.203Z,22.84
2022-08-07T15:44:30.182Z,22.67
2022-08-07T15:47:16.723Z,22.56
2022-08-07T15:50:03.841Z,22.46
2022-08-07T15:52:41.786Z,22.45
2022-08-07T15:55:53.574Z,22.41
2022-08-07T15:58:25.820Z,22.40
2022-08-07T16:01:14.044Z,22.37
2022-08-07T16:03:58.267Z,22.31
2022-08-07T16:06:35.252Z,22.23
2022-08-07T16:09:22.588Z,22.17
2022-08-07T16:12:12.250Z,22.06
2022-08-07T16:14:59.467Z,21.95
2022-08-07T16:18:01.600Z,21.87
2022-08-07T16:20:56.840Z,21.83
2022-08-07T16:24:00.528Z,21.79
2022-08-07T16:26:59.568Z,21.75
2022-08-07T16:30:17.735Z,21.74
2022-08-07T16:32:54.482Z,21.68
2022-08-07T16:35:51.779Z,21.67
2022-08-07T16:39:02.278Z,21.65
2022-08-07T16:42:04.725Z,21.63
2022-08-07T16:45:15.105Z,21.59
2022-08-07T16:48:27.728Z,21.62
2022-08-07T16:52:01.318Z,21.60
2022-08-07T16:54:32.968Z,21.58
2022-08-07T16:58:01.070Z,21.54
2022-08-07T17:00:34.999Z,21.51
2022-08-07T17:03:58.233Z,21.49
2022-08-07T17:06:44.572Z,21.47
2022-08-07T17:10:06.684Z,21.47
2022-08-07T17:12:44.251Z,21.41
2022-08-07T17:15:43.558Z,21.40
2022-08-07T17:18:38.138Z,21.38
2022-08-07T17:21:18.470Z,21.26
2022-08-07T17:24:09.420Z,21.20
2022-08-07T17:26:56.946Z,21.14
2022-08-07T17:30:14.100Z,21.17
2022-08-07T17:33:39.200Z,21.26
2022-08-07T17:36:20.716Z,21.24
2022-08-07T17:39:01.891Z,21.25
2022-08-07T17:42:03.445Z,21.21
2022-08-07T17:44:50.148Z,21.17
2022-08-07T17:47:42.776Z,21.15
2022-08-07T17:50:19.987Z,21.10
2022-08-07T17:53:00.503Z,21.05
2022-08-07T17:55:59.968Z,21.02
2022-08-07T17:58:46.288Z,20.97
2022-08-07T18:01:24.923Z,20.91
2022-08-07T18:04:24.573Z,20.85
2022-08-07T18:07:20.841Z,20.81
2022-08-07T18:10:29.203Z,20.75
2022-08-07T18:13:15.359Z,20.70
2022-08-07T18:16:00.127Z,20.62
2022-08-07T18:21:01.433Z,20.55
2022-08-07T18:21:58.372Z,20.49
2022-08-07T18:24:37.197Z,20.41
2022-08-07T18:27:39.199Z,20.36
2022-08-07T18:30:32.438Z,20.25
2022-08-07T18:33:54.771Z,20.22
2022-08-07T18:36:40.531Z,20.11
2022-08-07T18:40:08.523Z,20.04
2022-08-07T18:42:37.975Z,19.95
2022-08-07T18:45:43.375Z,19.88
2022-08-07T18:50:05.866Z,19.79
2022-08-07T18:52:33.459Z,19.71
2022-08-07T18:54:30.922Z,19.65
2022-08-07T18:57:30.963Z,19.56
2022-08-07T19:00:33.046Z,19.46
2022-08-07T19:03:15.730Z,19.38
2022-08-07T19:06:04.162Z,19.31
2022-08-07T19:12:03.965Z,19.17
2022-08-07T19:14:51.045Z,19.10
2022-08-07T19:17:59.311Z,19.04
2022-08-07T19:21:09.871Z,18.95
2022-08-07T19:23:58.611Z,18.87
2022-08-07T19:27:08.856Z,18.82
2022-08-07T19:31:03.013Z,18.78
2022-08-07T19:32:36.803Z,18.73
2022-08-07T19:35:22.463Z,18.67
2022-08-07T19:37:59.671Z,18.64
2022-08-07T19:40:49.711Z,18.60
2022-08-07T19:43:43.693Z,18.55
2022-08-07T19:46:28.972Z,18.51
2022-08-07T19:49:09.444Z,18.46
2022-08-07T19:51:51.722Z,18.42
2022-08-07T19:54:34.050Z,18.37
2022-08-07T19:58:01.223Z,18.31
2022-08-07T20:00:28.975Z,18.26
2022-08-07T20:03:34.029Z,18.21
2022-08-07T20:06:06.057Z,18.17
2022-08-07T20:08:48.896Z,18.13
2022-08-07T20:12:01.040Z,18.08
2022-08-07T20:14:31.303Z,18.05
2022-08-07T20:17:07.446Z,18.03
2022-08-07T20:19:47.940Z,18.02
2022-08-07T20:22:41.446Z,18.00
2022-08-07T20:25:20.411Z,17.95
2022-08-07T20:27:58.409Z,17.92
2022-08-07T20:30:34.169Z,17.89
2022-08-07T20:33:36.897Z,17.87
2022-08-07T20:36:10.101Z,17.83
2022-08-07T20:38:59.645Z,17.80
2022-08-07T20:41:38.460Z,17.79
2022-08-07T20:44:15.555Z,17.75
2022-08-07T20:47:05.645Z,17.71
2022-08-07T20:49:59.586Z,17.70
2022-08-07T20:52:50.415Z,17.69
2022-08-07T20:55:27.741Z,17.67
2022-08-07T20:58:19.180Z,17.65
2022-08-07T21:01:08.119Z,17.66
2022-08-07T21:04:19.798Z,17.60
2022-08-07T21:06:59.331Z,17.56
2022-08-07T21:09:52.864Z,17.50
2022-08-07T21:12:38.929Z,17.41
2022-08-07T21:15:18.722Z,17.34
2022-08-07T21:18:20.847Z,17.29
2022-08-07T21:20:56.120Z,17.22
2022-08-07T21:23:50.645Z,17.13
2022-08-07T21:26:34.734Z,17.04
2022-08-07T21:29:30.418Z,16.96
2022-08-07T21:32:46.822Z,16.86
2022-08-07T21:36:00.149Z,16.80
2022-08-07T21:38:27.464Z,16.72
2022-08-07T21:41:10.796Z,16.67
2022-08-07T21:43:55.947Z,16.64
2022-08-07T21:46:42.408Z,16.66
2022-08-07T21:49:26.812Z,16.65
2022-08-07T21:52:11.968Z,16.67
2022-08-07T21:55:02.918Z,16.70
2022-08-07T21:57:52.061Z,16.70
2022-08-07T22:00:27.058Z,16.66
2022-08-07T22:03:16.449Z,16.67
2022-08-07T22:05:57.359Z,16.62
2022-08-07T22:08:43.777Z,16.60
2022-08-07T22:11:22.580Z,16.53
2022-08-07T22:14:14.988Z,16.48
2022-08-07T22:17:01.535Z,16.43
2022-08-07T22:19:59.663Z,16.41
2022-08-07T22:22:44.704Z,16.36
2022-08-07T22:25:26.657Z,16.30
2022-08-07T22:28:29.850Z,16.23
2022-08-07T22:31:06.908Z,16.17
2022-08-07T22:33:56.635Z,16.13
2022-08-07T22:36:41.413Z,16.09
2022-08-07T22:39:35.221Z,16.06
2022-08-07T22:42:33.316Z,16.01
2022-08-07T22:45:21.763Z,15.96
2022-08-07T22:48:31.519Z,15.91
2022-08-07T22:51:19.549Z,15.86
2022-08-07T22:54:09.542Z,15.83
2022-08-07T22:57:02.548Z,15.77
2022-08-07T22:59:51.293Z,15.75
2022-08-07T23:02:43.202Z,15.72
2022-08-07T23:06:08.351Z,15.71
2022-08-07T23:08:51.525Z,15.64
2022-08-07T23:11:46.060Z,15.60
2022-08-07T23:14:37.125Z,15.55
2022-08-07T23:17:26.391Z,15.53
2022-08-07T23:20:40.522Z,15.54
2022-08-07T23:24:06.427Z,15.49
2022-08-07T23:26:54.903Z,15.46
2022-08-07T23:30:38.155Z,15.45
2022-08-07T23:34:35.634Z,15.42
2022-08-07T23:36:29.248Z,15.38
2022-08-07T23:39:14.250Z,15.33
2022-08-07T23:42:21.530Z,15.33
2022-08-07T23:45:43.535Z,15.33
2022-08-07T23:48:50.572Z,15.27
2022-08-07T23:52:59.570Z,15.23
2022-08-07T23:54:44.566Z,15.23
2022-08-07T23:57:29.447Z,15.23
